Time;durP1;ratioP1;P1;durP2;ratioP2;P2;SDS_P1;SDS_P2;PMS_P1;PMS_P2;Temp;Humidity;BMP_temperature;BMP_pressure;BME280_temperature;BME280_humidity;BME280_pressure;Samples;Min_cycle;Max_cycle;Signal;HPM_P1;HPM_P2
2021/12/14 00:01:34;;;;;;;0.00;0.00;;;7.10;99.90;;;6.79;100.00;101800.28;4990318;28;20226;-85
2021/12/14 00:04:31;;;;;;;0.20;0.20;;;7.10;99.90;;;6.77;100.00;101808.09;5020680;28;20209;-84
2021/12/14 00:07:08;;;;;;;0.00;0.00;;;7.10;99.90;;;6.79;100.00;101808.16;5024695;28;20226;-85
2021/12/14 00:09:39;;;;;;;0.10;0.10;;;7.10;99.90;;;6.79;100.00;101805.53;5002717;28;20213;-84
2021/12/14 00:12:26;;;;;;;0.10;0.10;;;7.10;99.90;;;6.78;100.00;101799.38;4989095;28;20233;-85
2021/12/14 00:15:03;;;;;;;0.03;0.03;;;7.10;99.90;;;6.79;100.00;101800.28;5025721;28;20217;-83
2021/12/14 00:17:58;;;;;;;0.22;0.22;;;7.00;99.90;;;6.79;100.00;101803.81;5022359;28;20564;-85
2021/12/14 00:20:35;;;;;;;0.00;0.00;;;;;;;6.79;100.00;101797.66;5023164;28;20210;-85
2021/12/14 00:25:49;;;;;;;0.03;0.03;;;7.00;99.90;;;6.78;100.00;101791.50;5013817;28;20212;-84
2021/12/14 00:28:31;;;;;;;0.00;0.00;;;7.10;99.90;;;6.78;100.00;101793.22;5027383;28;20213;-85
2021/12/14 00:31:04;;;;;;;0.00;0.00;;;7.00;99.90;;;6.77;100.00;101792.31;5029282;28;20233;-85
2021/12/14 00:33:36;;;;;;;0.10;0.10;;;7.10;99.90;;;6.77;100.00;101794.06;5029922;28;20198;-85
2021/12/14 00:36:09;;;;;;;0.20;0.20;;;7.10;99.90;;;6.77;100.00;101797.56;5026336;28;20253;-85
2021/12/14 00:38:41;;;;;;;0.10;0.10;;;7.00;99.90;;;6.75;100.00;101796.63;5037763;28;20206;-83
2021/12/14 00:41:20;;;;;;;0.10;0.10;;;7.10;99.90;;;6.78;100.00;101803.75;4996875;28;20253;-85
2021/12/14 00:43:48;;;;;;;0.25;0.25;;;7.10;99.90;;;6.76;100.00;101803.66;5024908;28;20206;-85
2021/12/14 00:46:20;;;;;;;0.00;0.00;;;;;;;6.75;100.00;101804.50;5020059;28;20674;-85
2021/12/14 00:48:50;;;;;;;0.00;0.00;;;7.00;99.90;;;6.76;100.00;101798.41;5034206;28;20207;-85
2021/12/14 00:51:27;;;;;;;0.00;0.00;;;7.00;99.90;;;6.76;100.00;101797.50;5011393;28;20222;-85
2021/12/14 00:53:59;;;;;;;0.10;0.10;;;7.00;99.90;;;6.73;100.00;101791.28;4998122;28;20217;-85
2021/12/14 00:56:28;;;;;;;0.00;0.00;;;;;;;6.73;100.00;101796.53;5021458;28;20235;-86
2021/12/14 00:58:56;;;;;;;0.00;0.00;;;;;;;6.73;100.00;101793.91;5018239;28;20594;-85
2021/12/14 01:02:01;;;;;;;0.00;0.00;;;6.90;99.90;;;6.72;100.00;101783.31;5011125;28;20230;-85
2021/12/14 01:04:37;;;;;;;0.10;0.10;;;6.90;99.90;;;6.70;100.00;101780.63;4996796;28;20207;-85
2021/12/14 01:07:10;;;;;;;0.00;0.00;;;6.90;99.90;;;6.68;100.00;101776.13;4999244;28;20209;-84
2021/12/14 01:09:43;;;;;;;0.10;0.10;;;6.80;99.90;;;6.67;100.00;101784.84;5002408;28;20198;-86
2021/12/14 01:12:25;;;;;;;0.10;0.10;;;6.80;99.90;;;6.66;100.00;101777.78;5016572;28;20237;-85
2021/12/14 01:15:12;;;;;;;0.15;0.15;;;6.80;99.90;;;6.64;100.00;101785.59;5023915;28;20226;-85
2021/12/14 01:17:54;;;;;;;0.10;0.10;;;6.80;99.90;;;6.64;100.00;101784.69;5030813;28;20216;-86
2021/12/14 01:20:30;;;;;;;0.00;0.00;;;6.80;99.90;;;6.64;100.00;101789.97;5000844;28;20201;-86
2021/12/14 01:23:02;;;;;;;0.00;0.00;;;;;;;6.63;100.00;101791.69;5004848;28;20343;-83
2021/12/14 01:25:37;;;;;;;0.10;0.10;;;6.80;99.90;;;6.64;100.00;101795.22;5038456;28;20702;-86
2021/12/14 01:28:14;;;;;;;0.00;0.00;;;6.80;99.90;;;6.63;100.00;101793.41;5035329;28;20218;-85
2021/12/14 01:31:01;;;;;;;0.00;0.00;;;6.80;99.90;;;6.62;100.00;101795.16;5006362;28;20564;-85
2021/12/14 01:33:31;;;;;;;0.10;0.10;;;6.80;99.90;;;6.63;100.00;101806.56;5025043;28;20213;-85
2021/12/14 01:36:08;;;;;;;0.00;0.00;;;6.80;99.90;;;6.64;100.00;101808.34;5019851;28;20233;-84
2021/12/14 01:38:48;;;;;;;0.10;0.10;;;;;;;6.64;100.00;101811.00;5008508;28;20209;-85
2021/12/14 01:41:17;;;;;;;0.00;0.00;;;;;;;6.63;100.00;101804.84;5008854;28;20230;-85
2021/12/14 01:43:57;;;;;;;0.05;0.05;;;6.80;99.90;;;6.62;100.00;101810.91;5001711;28;20218;-85
2021/12/14 01:46:43;;;;;;;0.00;0.00;;;6.90;99.90;;;6.64;100.00;101816.25;5027285;28;20578;-85
2021/12/14 01:49:47;;;;;;;0.10;0.10;;;;;;;6.61;100.00;101822.25;4954546;28;20209;-85
2021/12/14 01:52:42;;;;;;;0.10;0.10;;;;;;;6.62;100.00;101817.91;5026650;28;20221;-86
2021/12/14 01:55:20;;;;;;;0.10;0.10;;;;;;;6.61;100.00;101826.63;5030163;28;20210;-86
2021/12/14 01:57:49;;;;;;;0.20;0.20;;;;;;;6.61;100.00;101834.50;5012819;28;20234;-85
2021/12/14 02:00:33;;;;;;;0.10;0.10;;;6.70;99.90;;;6.58;100.00;101827.38;5013957;28;20204;-84
2021/12/14 02:03:07;;;;;;;0.10;0.10;;;6.80;99.90;;;6.59;100.00;101833.53;5029536;28;20232;-85
2021/12/14 02:05:50;;;;;;;0.10;0.10;;;6.80;99.90;;;6.59;100.00;101842.31;5012638;28;20209;-84
2021/12/14 02:08:32;;;;;;;0.10;0.10;;;6.80;99.90;;;6.57;100.00;101836.09;5030086;28;20206;-86
2021/12/14 02:11:06;;;;;;;0.10;0.10;;;7.40;99.90;;;6.57;100.00;101835.19;5005105;28;20320;-84
2021/12/14 02:13:42;;;;;;;0.00;0.00;;;6.70;99.90;;;6.57;100.00;101830.81;4986118;28;20210;-86
2021/12/14 02:16:19;;;;;;;0.10;0.10;;;6.70;99.90;;;6.55;100.00;101828.97;5001918;28;20226;-85
2021/12/14 02:19:10;;;;;;;0.00;0.00;;;6.70;99.90;;;6.53;100.00;101835.88;5014917;28;20237;-84
2021/12/14 02:21:39;;;;;;;0.30;0.30;;;;;;;6.53;100.00;101842.03;5036171;28;20233;-85
2021/12/14 02:24:10;;;;;;;0.25;0.25;;;6.70;99.90;;;6.52;100.00;101847.22;5039455;28;20232;-86
2021/12/14 02:26:43;;;;;;;0.00;0.00;;;6.70;99.90;;;6.51;100.00;101846.31;5026796;28;20209;-85
2021/12/14 02:29:44;;;;;;;0.17;0.17;;;6.70;99.90;;;6.48;100.00;101846.13;5008138;28;20202;-85
2021/12/14 02:32:18;;;;;;;0.10;0.10;;;6.70;99.90;;;6.48;100.00;101840.88;5026605;28;20272;-85
2021/12/14 02:34:47;;;;;;;0.10;0.10;;;;;;;6.47;100.00;101854.84;5008500;28;20694;-85
2021/12/14 02:37:20;;;;;;;0.00;0.00;;;6.60;99.90;;;6.46;100.00;101853.03;5026009;28;20229;-86
2021/12/14 02:40:01;;;;;;;0.00;0.00;;;;;;;6.46;100.00;101844.25;5042369;28;20210;-85
2021/12/14 02:42:32;;;;;;;0.17;0.17;;;6.60;99.90;;;6.44;100.00;101849.44;5027995;28;20233;-85
2021/12/14 02:45:01;;;;;;;0.10;0.10;;;;;;;6.46;100.00;101850.41;4987925;28;20698;-85
2021/12/14 02:47:29;;;;;;;0.03;0.03;;;;;;;6.43;100.00;101850.25;5006616;28;20214;-85
2021/12/14 02:49:58;;;;;;;0.00;0.00;;;;;;;6.43;100.00;101850.25;5019905;28;20214;-85
2021/12/14 02:52:36;;;;;;;0.00;0.00;;;6.50;99.90;;;6.42;100.00;101857.25;5022183;28;20695;-85
2021/12/14 02:55:14;;;;;;;0.50;0.50;;;6.50;99.90;;;6.41;100.00;101863.31;5020812;28;20213;-85
2021/12/14 02:57:50;;;;;;;0.03;0.03;;;6.50;99.90;;;6.42;100.00;101866.84;5041417;28;20262;-86
2021/12/14 03:00:39;;;;;;;0.10;0.10;;;6.60;99.90;;;6.41;100.00;101857.16;5020059;28;20579;-85
2021/12/14 03:03:10;;;;;;;0.10;0.10;;;6.60;99.90;;;6.40;100.00;101863.25;4993111;28;20203;-85
2021/12/14 03:05:42;;;;;;;0.00;0.00;;;6.60;99.90;;;6.40;100.00;101853.66;5016192;28;20202;-84
2021/12/14 03:08:20;;;;;;;0.10;0.10;;;6.40;99.90;;;6.38;100.00;101843.88;5041004;28;20222;-84
2021/12/14 03:11:10;;;;;;;0.05;0.05;;;6.50;99.90;;;6.38;100.00;101828.13;4999569;28;20209;-85
2021/12/14 03:13:40;;;;;;;0.00;0.00;;;;;;;6.37;100.00;101829.84;5011410;28;20225;-85
2021/12/14 03:16:22;;;;;;;0.00;0.00;;;6.50;99.90;;;6.36;100.00;101835.03;5021541;28;20210;-85
2021/12/14 03:18:52;;;;;;;0.08;0.08;;;6.50;99.90;;;6.34;100.00;101829.69;5029603;28;20202;-85
2021/12/14 03:21:28;;;;;;;0.55;0.55;;;6.50;99.90;;;6.32;100.00;101818.22;5000572;28;20226;-84
2021/12/14 03:24:11;;;;;;;0.10;0.10;;;6.70;99.90;;;6.31;100.00;101837.44;5012353;28;20203;-86
2021/12/14 03:26:44;;;;;;;0.10;0.10;;;6.50;99.90;;;6.30;100.00;101850.50;5011710;28;20210;-85
2021/12/14 03:29:33;;;;;;;0.10;0.10;;;6.40;99.90;;;6.30;100.00;101842.63;5010435;28;20582;-85
2021/12/14 03:32:02;;;;;;;0.10;0.10;;;;;;;6.28;100.00;101845.16;5029730;28;20265;-85
2021/12/14 03:34:38;;;;;;;0.10;0.10;;;6.40;99.90;;;6.26;100.00;101836.31;5036874;28;20210;-85
2021/12/14 03:37:20;;;;;;;0.10;0.10;;;6.40;99.90;;;6.26;100.00;101836.31;5026554;28;20222;-85
2021/12/14 03:39:53;;;;;;;0.10;0.10;;;6.40;99.90;;;6.25;100.00;101828.34;5025311;28;20201;-85
2021/12/14 03:42:36;;;;;;;0.00;0.00;;;6.40;99.90;;;6.23;100.00;101822.13;5022885;28;20233;-85
2021/12/14 03:45:16;;;;;;;0.10;0.10;;;6.40;99.90;;;6.22;100.00;101820.31;5009121;28;20211;-85
2021/12/14 03:47:52;;;;;;;0.10;0.10;;;6.40;99.90;;;6.21;100.00;101824.69;5022423;28;20207;-85
2021/12/14 03:50:32;;;;;;;0.08;0.08;;;6.30;99.90;;;6.19;100.00;101823.69;4991496;28;20210;-85
2021/12/14 03:53:02;;;;;;;0.08;0.08;;;;;;;6.18;100.00;101828.88;5007044;28;20224;-85
2021/12/14 03:55:40;;;;;;;0.00;0.00;;;6.30;99.90;;;6.16;100.00;101835.78;5031382;28;20194;-85
2021/12/14 03:58:19;;;;;;;0.05;0.05;;;6.30;99.90;;;6.16;100.00;101831.44;5041791;28;20222;-85
2021/12/14 04:00:59;;;;;;;0.10;0.10;;;6.30;99.90;;;6.16;100.00;101838.41;5025531;28;20213;-83
2021/12/14 04:03:37;;;;;;;0.00;0.00;;;6.30;99.90;;;6.14;100.00;101843.59;5022283;28;20210;-85
2021/12/14 04:06:13;;;;;;;0.10;0.10;;;6.30;99.90;;;6.14;100.00;101837.44;5003941;28;20226;-85
2021/12/14 04:08:42;;;;;;;0.00;0.00;;;;;;;6.14;100.00;101829.56;5031484;28;20217;-83
2021/12/14 04:11:13;;;;;;;0.17;0.17;;;6.30;99.90;;;6.14;100.00;101819.94;4983771;28;20295;-84
2021/12/14 04:13:46;;;;;;;0.03;0.03;;;6.30;99.90;;;6.11;100.00;101817.16;5023509;28;20210;-83
2021/12/14 04:16:27;;;;;;;0.00;0.00;;;6.30;99.90;;;6.09;100.00;101824.97;5005303;28;20201;-85
2021/12/14 04:19:03;;;;;;;0.10;0.10;;;;;;;6.07;100.00;101824.00;5037908;28;20243;-85
2021/12/14 04:21:40;;;;;;;0.10;0.10;;;6.20;99.90;;;6.05;100.00;101820.41;5006575;28;20236;-85
2021/12/14 04:24:14;;;;;;;0.00;0.00;;;6.20;99.90;;;6.04;100.00;101813.34;5022245;28;20217;-85
2021/12/14 04:26:45;;;;;;;0.10;0.10;;;;;;;6.03;100.00;101808.91;5039193;28;20221;-85
2021/12/14 04:29:17;;;;;;;0.10;0.10;;;;;;;6.02;100.00;101806.22;5000093;28;20234;-86
2021/12/14 04:31:47;;;;;;;0.65;0.65;;;6.20;99.90;;;6.01;100.00;101793.91;5061110;23;20230;-82
2021/12/14 04:34:17;;;;;;;0.10;0.10;;;;;;;6.00;100.00;101798.25;5024119;28;20218;-82
2021/12/14 04:36:51;;;;;;;0.00;0.00;;;6.20;99.90;;;5.99;100.00;101813.94;5023870;28;20214;-82
2021/12/14 04:54:02;;;;;;;1.10;1.10;;;6.10;99.90;;;5.93;100.00;101798.78;5010364;28;20200;-82
2021/12/14 04:56:39;;;;;;;0.10;0.10;;;6.10;99.90;;;5.95;100.00;101801.50;4988510;28;20233;-82
2021/12/14 04:59:13;;;;;;;0.30;0.30;;;;;;;5.93;100.00;101783.03;4982097;28;20230;-81
2021/12/14 05:01:45;;;;;;;0.10;0.10;;;6.10;99.90;;;5.93;100.00;101782.13;4986578;28;20246;-81
2021/12/14 05:04:23;;;;;;;0.20;0.20;;;6.10;99.90;;;5.92;100.00;101796.09;4987844;28;20199;-81
2021/12/14 05:07:04;;;;;;;0.10;0.10;;;6.10;99.90;;;5.90;100.00;101780.25;4987112;28;20211;-82
2021/12/14 05:09:37;;;;;;;0.10;0.10;;;6.10;99.90;;;5.91;100.00;101770.66;4987122;28;20570;-80
2021/12/14 05:12:20;;;;;;;0.10;0.10;;;6.00;99.90;;;5.91;100.00;101762.78;5002299;28;20222;-82
2021/12/14 05:14:59;;;;;;;0.00;0.00;;;6.00;99.90;;;5.89;100.00;101762.69;4994961;28;20207;-81
2021/12/14 05:17:32;;;;;;;0.10;0.10;;;6.00;99.90;;;5.91;100.00;101765.41;5003394;28;20699;-82
2021/12/14 05:20:01;;;;;;;0.05;0.05;;;;;;;5.89;100.00;101772.28;4988216;28;20776;-82
2021/12/14 05:22:34;;;;;;;0.05;0.05;;;6.00;99.90;;;5.88;100.00;101767.84;4986279;28;20223;-81
2021/12/14 05:25:20;;;;;;;0.00;0.00;;;6.00;99.90;;;5.88;100.00;101759.97;4989950;28;20216;-81
2021/12/14 05:27:59;;;;;;;0.10;0.10;;;6.00;99.90;;;5.88;100.00;101763.50;4989702;28;20207;-81
2021/12/14 05:30:40;;;;;;;0.10;0.10;;;6.00;99.90;;;5.88;100.00;101757.34;5002060;28;20207;-81
2021/12/14 05:33:36;;;;;;;0.10;0.10;;;6.00;99.90;;;5.87;100.00;101755.53;4990614;28;20217;-81
2021/12/14 05:36:43;;;;;;;0.10;0.10;;;6.00;99.90;;;5.86;100.00;101748.50;4976173;28;20204;-81
2021/12/14 05:39:26;;;;;;;0.00;0.00;;;;;;;5.88;100.00;101759.97;4976735;28;20310;-81
2021/12/14 05:45:22;;;;;;;0.10;0.10;;;6.00;99.90;;;5.88;100.00;101755.63;4988632;28;20211;-81
2021/12/14 05:47:58;;;;;;;0.10;0.10;;;6.00;99.90;;;5.87;100.00;101747.66;4999002;28;20207;-83
2021/12/14 05:50:39;;;;;;;0.35;0.35;;;6.00;99.90;;;5.86;100.00;101738.88;4979928;28;20211;-83
2021/12/14 05:53:11;;;;;;;0.10;0.10;;;6.00;99.90;;;5.87;100.00;101740.69;4981792;28;20219;-81
2021/12/14 05:55:41;;;;;;;0.20;0.20;;;6.00;99.90;;;5.88;100.00;101746.84;5006599;28;20202;-81
2021/12/14 05:58:20;;;;;;;0.10;0.10;;;6.00;99.90;;;5.88;100.00;101767.84;4990363;28;20709;-81
2021/12/14 06:01:03;;;;;;;0.10;0.10;;;6.00;99.90;;;5.88;100.00;101763.50;5023430;28;20783;-81
2021/12/14 06:03:41;;;;;;;0.10;0.10;;;6.00;99.90;;;5.89;100.00;101773.22;4989486;28;20213;-85
2021/12/14 06:06:23;;;;;;;0.10;0.10;;;6.00;99.90;;;5.87;100.00;101764.31;5003437;28;20199;-82
2021/12/14 06:09:24;;;;;;;1.05;1.05;;;6.00;99.90;;;5.86;100.00;101759.91;5021373;28;20313;-82
2021/12/14 06:12:07;;;;;;;0.20;0.20;;;;;;;5.84;100.00;101752.75;5001578;28;20233;-83
2021/12/14 06:14:42;;;;;;;0.10;0.10;;;6.00;99.90;;;5.83;100.00;101751.88;4988920;28;20199;-83
2021/12/14 06:17:11;;;;;;;0.00;0.00;;;6.00;99.90;;;5.81;100.00;101748.25;5005183;28;20210;-82
2021/12/14 06:19:49;;;;;;;0.00;0.00;;;5.90;99.90;;;5.79;100.00;101752.53;4988319;28;20238;-83
2021/12/14 06:22:20;;;;;;;0.10;0.10;;;5.90;99.90;;;5.78;100.00;101745.50;4988652;28;20223;-82
2021/12/14 06:24:59;;;;;;;0.85;0.85;;;5.90;99.90;;;5.76;100.00;101752.38;5021604;28;20207;-82
2021/12/14 06:27:32;;;;;;;0.10;0.10;;;5.90;99.90;;;5.73;100.00;101757.50;5007076;28;20210;-83
2021/12/14 06:30:11;;;;;;;0.10;0.10;;;5.90;99.90;;;5.71;100.00;101770.53;5004134;28;20211;-82
2021/12/14 06:32:54;;;;;;;0.10;0.10;;;5.80;99.90;;;5.70;100.00;101775.72;4985392;28;20235;-83
2021/12/14 06:35:36;;;;;;;0.10;0.10;;;5.80;99.90;;;5.69;100.00;101756.44;4980315;28;20211;-82
2021/12/14 06:38:25;;;;;;;0.10;0.10;;;5.80;99.90;;;5.67;100.00;101755.47;5004393;28;20610;-83
2021/12/14 06:41:12;;;;;;;0.10;0.10;;;5.70;99.90;;;5.62;100.00;101745.56;5020826;28;20208;-82
2021/12/14 06:43:49;;;;;;;0.10;0.10;;;;;;;5.55;100.00;101736.47;5005784;28;20218;-82
2021/12/14 06:46:31;;;;;;;0.10;0.10;;;5.60;99.90;;;5.46;100.00;101738.66;5005049;28;20211;-81
2021/12/14 06:49:13;;;;;;;0.00;0.00;;;5.50;99.90;;;5.40;100.00;101736.63;5004191;28;20203;-82
2021/12/14 06:51:49;;;;;;;0.10;0.10;;;5.50;99.90;;;5.39;100.00;101741.78;5003803;28;20227;-83
2021/12/14 06:54:41;;;;;;;0.10;0.10;;;5.50;99.90;;;5.37;100.00;101757.44;4997391;28;20212;-83
2021/12/14 06:57:48;;;;;;;0.10;0.10;;;;;;;5.33;100.00;101762.47;5027544;28;20202;-82
2021/12/14 07:00:27;;;;;;;0.10;0.10;;;;;;;5.33;100.00;101757.22;5010199;28;20202;-83
2021/12/14 07:02:58;;;;;;;0.10;0.10;;;;;;;5.31;100.00;101779.84;5024035;28;20233;-83
2021/12/14 07:05:34;;;;;;;0.10;0.10;;;5.40;99.90;;;5.30;100.00;101784.19;4992648;28;20222;-83
2021/12/14 07:08:24;;;;;;;0.10;0.10;;;5.40;99.90;;;5.28;100.00;101788.44;4987692;28;20223;-83
2021/12/14 07:10:53;;;;;;;0.10;0.10;;;;;;;5.29;100.00;101792.88;4989290;28;20211;-82
2021/12/14 07:13:34;;;;;;;0.00;0.00;;;5.40;99.90;;;5.30;100.00;101789.44;4989237;28;20231;-83
2021/12/14 07:16:19;;;;;;;0.00;0.00;;;5.40;99.90;;;5.26;100.00;101790.09;4991432;28;20211;-84
2021/12/14 07:19:09;;;;;;;0.10;0.10;;;5.40;99.90;;;5.25;100.00;101790.91;5004199;28;20235;-85
2021/12/14 07:23:04;;;;;;;0.10;0.10;;;5.30;99.90;;;5.22;100.00;101805.59;5042285;28;20231;-84
2021/12/14 07:25:39;;;;;;;0.10;0.10;;;5.30;99.90;;;5.21;100.00;101811.66;5003530;28;20204;-83
2021/12/14 07:28:14;;;;;;;0.10;0.10;;;5.30;99.90;;;5.18;100.00;101812.38;4996200;28;20854;-83
2021/12/14 07:30:45;;;;;;;0.10;0.10;;;5.20;99.90;;;5.14;100.00;101792.03;4990308;28;20203;-83
2021/12/14 07:33:15;;;;;;;0.10;0.10;;;;;;;5.10;100.00;101793.59;5006305;28;20234;-82
2021/12/14 07:35:50;;;;;;;0.20;0.20;;;;;;;5.09;100.00;101802.28;4974941;28;20207;-83
2021/12/14 07:38:46;;;;;;;0.10;0.10;;;5.20;99.90;;;5.07;100.00;101803.03;4993756;28;20230;-83
2021/12/14 07:41:36;;;;;;;0.10;0.10;;;5.20;99.90;;;5.07;100.00;101814.41;4996345;28;20223;-83
2021/12/14 07:44:24;;;;;;;0.10;0.10;;;5.20;99.90;;;5.07;100.00;101803.03;5004467;28;20208;-82
2021/12/14 07:47:17;;;;;;;0.10;0.10;;;5.10;99.90;;;5.06;100.00;101806.47;4998881;28;20207;-82
2021/12/14 07:49:56;;;;;;;0.10;0.10;;;5.20;99.90;;;4.99;100.00;101797.38;5004746;28;20210;-82
2021/12/14 07:52:33;;;;;;;0.10;0.10;;;5.10;99.90;;;5.03;100.00;101791.47;4992326;28;20236;-82
2021/12/14 07:55:18;;;;;;;0.10;0.10;;;5.10;99.90;;;4.97;100.00;101803.38;4987564;28;20212;-82
2021/12/14 07:57:48;;;;;;;0.10;0.10;;;5.10;99.90;;;4.96;100.00;101806.81;4987492;28;20199;-82
2021/12/14 08:00:25;;;;;;;0.10;0.10;;;5.10;99.90;;;4.97;100.00;101806.88;4986522;28;20240;-82
2021/12/14 08:03:01;;;;;;;0.10;0.10;;;5.10;99.90;;;4.96;100.00;101798.94;4982135;28;20227;-82
2021/12/14 08:05:44;;;;;;;0.10;0.10;;;5.10;99.90;;;5.01;100.00;101810.56;4979415;28;20206;-83
2021/12/14 08:08:16;;;;;;;0.10;0.10;;;;;;;4.97;100.00;101813.84;4987732;28;20199;-83
2021/12/14 08:11:08;;;;;;;0.10;0.10;;;5.10;99.90;;;4.96;100.00;101820.81;4998340;28;20199;-83
2021/12/14 08:13:49;;;;;;;0.10;0.10;;;5.10;99.90;;;4.99;100.00;101820.06;5002830;28;20200;-81
2021/12/14 08:16:18;;;;;;;0.10;0.10;;;;;;;4.98;100.00;101821.81;5012650;28;20203;-82
2021/12/14 08:18:47;;;;;;;0.10;0.10;;;5.10;99.90;;;4.97;100.00;101824.34;4984101;28;20211;-82
2021/12/14 08:21:23;;;;;;;0.10;0.10;;;5.10;99.90;;;4.92;100.00;101821.47;4996792;28;20203;-81
2021/12/14 08:23:59;;;;;;;0.10;0.10;;;5.10;99.90;;;4.92;100.00;101826.72;4976649;28;20204;-82
2021/12/14 08:26:34;;;;;;;0.00;0.00;;;;;;;4.92;100.00;101820.56;4987828;28;20657;-83
2021/12/14 08:29:15;;;;;;;0.10;0.10;;;5.00;99.90;;;4.93;100.00;101827.63;4989242;28;20222;-82
2021/12/14 08:31:50;;;;;;;0.10;0.10;;;5.00;99.90;;;4.92;100.00;101829.34;4992764;28;20223;-82
2021/12/14 08:34:26;;;;;;;0.10;0.10;;;5.10;99.90;;;4.95;100.00;101828.59;4994823;28;20207;-82
2021/12/14 08:36:54;;;;;;;0.00;0.00;;;;;;;4.94;100.00;101817.22;4993730;28;20210;-82
2021/12/14 08:39:33;;;;;;;0.10;0.10;;;5.00;99.90;;;4.97;100.00;101832.19;5011059;28;20223;-82
2021/12/14 08:42:24;;;;;;;0.73;0.73;;;5.10;99.90;;;4.97;100.00;101827.88;4997640;28;20222;-83
2021/12/14 08:44:57;;;;;;;0.10;0.10;;;5.10;99.90;;;5.00;100.00;101835.88;4997164;28;20211;-81
2021/12/14 08:47:40;;;;;;;0.10;0.10;;;5.10;99.90;;;5.01;100.00;101835.06;4978197;28;20211;-82
2021/12/14 08:50:14;;;;;;;0.10;0.10;;;5.20;99.90;;;5.04;100.00;101842.19;5004836;28;20207;-83
2021/12/14 08:52:42;;;;;;;0.10;0.10;;;;;;;5.06;100.00;101845.81;4983119;28;20222;-82
2021/12/14 08:55:16;;;;;;;0.10;0.10;;;5.20;99.90;;;5.06;100.00;101844.09;4976421;28;20220;-82
2021/12/14 08:57:44;;;;;;;0.20;0.20;;;;;;;5.05;100.00;101836.13;4976392;28;20218;-82
2021/12/14 09:00:29;;;;;;;0.10;0.10;;;5.20;99.90;;;5.07;100.00;101843.25;4990012;28;20231;-82
2021/12/14 09:03:01;;;;;;;0.10;0.10;;;5.20;99.90;;;5.05;100.00;101850.16;4976436;28;20227;-83
2021/12/14 09:05:41;;;;;;;0.10;0.10;;;5.20;99.90;;;5.07;100.00;101855.47;4990561;28;20676;-82
2021/12/14 09:08:09;;;;;;;0.10;0.10;;;;;;;5.10;100.00;101863.50;4992932;28;20210;-82
2021/12/14 09:10:40;;;;;;;0.10;0.10;;;5.30;99.90;;;5.12;100.00;101865.38;4981838;28;20203;-83
2021/12/14 09:13:12;;;;;;;0.10;0.10;;;5.30;99.90;;;5.17;100.00;101862.13;5010289;28;20223;-82
2021/12/14 09:15:54;;;;;;;0.10;0.10;;;5.30;99.90;;;5.17;100.00;101869.97;4995253;28;20222;-83
2021/12/14 09:18:26;;;;;;;0.10;0.10;;;5.40;99.90;;;5.20;100.00;101867.53;4992956;28;20211;-83
2021/12/14 09:21:01;;;;;;;0.20;0.20;;;5.40;99.90;;;5.22;100.00;101876.41;4991050;28;20239;-82
2021/12/14 09:23:38;;;;;;;0.10;0.10;;;5.40;99.90;;;5.25;100.00;101879.19;4982632;28;20591;-82
2021/12/14 09:26:17;;;;;;;0.10;0.10;;;5.40;99.90;;;5.30;100.00;101880.34;4973749;28;20214;-82
2021/12/14 09:28:49;;;;;;;0.10;0.10;;;5.50;99.90;;;5.32;100.00;101874.34;5006115;28;20203;-82
2021/12/14 09:31:24;;;;;;;0.10;0.10;;;5.50;99.90;;;5.36;100.00;101886.81;4989086;28;20207;-82
2021/12/14 09:33:57;;;;;;;0.30;0.30;;;5.50;99.90;;;5.38;100.00;101874.69;4962310;28;20211;-82
2021/12/14 09:36:29;;;;;;;0.10;0.10;;;5.60;99.90;;;5.45;100.00;101879.44;4988619;28;20211;-82
2021/12/14 09:39:09;;;;;;;0.10;0.10;;;5.70;99.90;;;5.55;100.00;101880.81;4997402;28;20220;-82
2021/12/14 09:41:39;;;;;;;0.55;0.55;;;5.70;99.90;;;5.56;100.00;101879.09;4959276;28;20231;-82
2021/12/14 09:44:12;;;;;;;0.00;0.00;;;5.80;99.90;;;5.64;100.00;101880.38;4981983;28;20207;-82
2021/12/14 09:46:41;;;;;;;0.10;0.10;;;;;;;5.66;100.00;101876.13;4996495;28;20582;-83
2021/12/14 09:49:11;;;;;;;0.40;0.40;;;5.90;99.90;;;5.77;100.00;101894.22;4978932;28;20672;-83
2021/12/14 09:51:49;;;;;;;0.20;0.20;;;6.00;99.90;;;5.80;100.00;101890.84;4981521;28;20224;-82
2021/12/14 09:54:21;;;;;;;0.10;0.10;;;6.10;99.90;;;5.97;100.00;101899.63;4962961;28;20195;-82
2021/12/14 09:57:14;;;;;;;0.10;0.10;;;6.20;99.90;;;6.04;100.00;101897.38;5009021;28;20223;-82
2021/12/14 09:59:43;;;;;;;0.05;0.05;;;6.30;99.90;;;6.09;100.00;101902.88;4970375;28;20214;-82
2021/12/14 10:02:27;;;;;;;0.30;0.30;;;6.30;99.90;;;6.09;100.00;101909.03;4990994;28;20223;-81
2021/12/14 10:05:15;;;;;;;0.17;0.17;;;6.30;99.90;;;6.11;100.00;101924.88;4961243;28;20207;-82
2021/12/14 10:07:44;;;;;;;0.10;0.10;;;;;;;6.16;100.00;101917.22;5015025;28;20653;-81
2021/12/14 10:10:21;;;;;;;0.10;0.10;;;;;;;6.11;100.00;101911.72;4996685;28;20218;-81
2021/12/14 10:12:55;;;;;;;0.10;0.10;;;6.30;99.90;;;6.16;100.00;101914.59;4996548;28;20228;-82
2021/12/14 10:15:35;;;;;;;0.10;0.10;;;;;;;6.21;100.00;101899.97;5015885;28;20209;-82
2021/12/14 10:18:13;;;;;;;0.30;0.30;;;6.40;99.90;;;6.24;100.00;101889.59;4996381;28;20280;-80
2021/12/14 10:21:09;;;;;;;0.10;0.10;;;6.40;99.90;;;6.23;100.00;101885.16;4996739;28;20223;-82
2021/12/14 10:23:46;;;;;;;0.10;0.10;;;6.40;99.90;;;6.23;100.00;101882.53;4985317;28;20200;-82
2021/12/14 10:26:17;;;;;;;0.00;0.00;;;6.40;99.90;;;6.23;100.00;101883.44;5010962;28;20203;-81
2021/12/14 10:29:05;;;;;;;0.10;0.10;;;6.30;99.90;;;6.29;100.00;101886.38;5011196;28;20200;-82
2021/12/14 10:32:09;;;;;;;0.10;0.10;;;6.50;99.90;;;6.27;100.00;101879.25;5011993;28;21211;-81
2021/12/14 10:34:46;;;;;;;0.75;0.43;;;6.50;99.90;;;6.28;100.00;101876.69;4953094;28;20230;-83
2021/12/14 10:37:55;;;;;;;0.10;0.10;;;6.50;99.90;;;6.29;100.00;101873.25;4989324;28;20681;-82
2021/12/14 10:43:22;;;;;;;0.10;0.10;;;6.50;99.90;;;6.33;100.00;101882.16;4994256;28;20241;-82
2021/12/14 10:46:11;;;;;;;0.10;0.10;;;6.50;99.90;;;6.39;100.00;101887.72;4996314;28;20227;-83
2021/12/14 10:48:44;;;;;;;0.10;0.10;;;6.60;99.90;;;6.40;100.00;101895.69;4992419;28;20612;-82
2021/12/14 10:51:19;;;;;;;0.10;0.10;;;6.50;99.90;;;6.37;100.00;101882.41;4986338;28;20203;-82
2021/12/14 10:53:52;;;;;;;0.10;0.10;;;6.50;99.90;;;6.43;100.00;101882.69;4981181;28;20211;-82
2021/12/14 10:56:58;;;;;;;1.65;1.10;;;6.70;99.90;;;6.49;100.00;101879.47;5015750;28;20207;-81
2021/12/14 10:59:35;;;;;;;0.10;0.10;;;6.80;99.90;;;6.66;100.00;101883.84;4991644;28;20211;-80
2021/12/14 11:02:04;;;;;;;0.10;0.10;;;;;;;6.78;100.00;101883.53;4984171;28;20246;-80
2021/12/14 11:04:53;;;;;;;0.08;0.08;;;7.00;99.90;;;6.78;100.00;101873.00;5000387;28;20218;-80
2021/12/14 11:07:43;;;;;;;0.00;0.00;;;7.10;99.90;;;6.81;100.00;101862.63;5003755;28;20258;-80
2021/12/14 11:10:29;;;;;;;0.10;0.10;;;7.10;99.90;;;6.80;100.00;101860.81;4998941;28;20697;-79
2021/12/14 11:13:07;;;;;;;0.10;0.10;;;7.10;99.90;;;6.86;100.00;101865.47;5006461;28;20227;-79
2021/12/14 11:15:48;;;;;;;0.10;0.10;;;7.10;99.90;;;6.85;100.00;101859.31;4991820;28;20210;-81
2021/12/14 11:18:22;;;;;;;0.10;0.10;;;7.00;99.90;;;6.81;100.00;101845.94;5003573;28;20218;-81
2021/12/14 11:21:03;;;;;;;0.10;0.10;;;7.00;99.90;;;6.74;100.00;101843.03;4980184;28;20230;-82
2021/12/14 11:23:36;;;;;;;0.10;0.10;;;7.00;99.90;;;6.74;100.00;101844.75;5034500;28;20275;-81
2021/12/14 11:26:17;;;;;;;0.00;0.00;;;6.90;99.90;;;6.67;100.00;101840.94;4983974;28;20210;-82
2021/12/14 11:28:55;;;;;;;0.10;0.10;;;6.90;99.90;;;6.73;100.00;101849.13;5017207;28;20218;-81
2021/12/14 11:31:23;;;;;;;0.08;0.08;;;;;;;6.72;100.00;101847.31;5029306;28;20597;-81
2021/12/14 11:34:09;;;;;;;0.00;0.00;;;6.90;99.90;;;6.73;100.00;101842.97;4996524;28;20211;-81
2021/12/14 11:36:44;;;;;;;0.28;0.28;;;7.00;99.90;;;6.77;100.00;101851.91;5005999;28;20212;-82
2021/12/14 11:39:41;;;;;;;0.10;0.10;;;6.80;99.90;;;6.79;100.00;101848.50;4990744;28;20212;-82
2021/12/14 11:42:23;;;;;;;0.10;0.10;;;7.00;99.90;;;6.80;100.00;101845.06;4997331;28;20231;-82